METAR Data
IDs: Format: Raw Decoded Include TAF

Data at: 2154 UTC 08 Aug 2020

KU42 082135Z AUTO 11010G16KT 10SM CLR 34/02 A3007 RMK AO1 T03420023
KU42 082115Z AUTO 14012G16KT 10SM CLR 34/02 A3008 RMK AO1 T03410023
KU42 082055Z AUTO 12009G16KT 110V180 10SM CLR 34/02 A3009 RMK AO1 T03370019
KU42 082035Z AUTO 13013G17KT 10SM CLR 34/02 A3009 RMK AO1 T03370019
KU42 082015Z AUTO 12013KT 10SM CLR 33/02 A3009 RMK AO1 T03340017
KU42 081955Z AUTO 12011G16KT 10SM CLR 33/02 A3010 RMK AO1 T03280015
KU42 081935Z AUTO 16011G15KT 10SM CLR 33/02 A3011 RMK AO1 T03270016
KU42 081915Z AUTO 14012G15KT 10SM CLR 33/02 A3012 RMK AO1 T03280018
KU42 081855Z AUTO 14008G17KT 10SM CLR 32/02 A3012 RMK AO1 T03200016
KU42 081835Z AUTO 12012G17KT 10SM CLR 32/02 A3013 RMK AO1 T03170016
KU42 081815Z AUTO 14013G19KT 10SM CLR 31/02 A3013 RMK AO1 T03130015
KU42 081755Z AUTO 15016G20KT 10SM CLR 31/02 A3014 RMK AO1 T03080022 10308 20192
KU42 081735Z AUTO 15017KT 10SM CLR 30/02 A3014 RMK AO1 T03030020
KU42 081715Z AUTO 15015G21KT 10SM CLR 29/01 A3014 RMK AO1 T02940012
KU42 081655Z AUTO 16016G20KT 10SM CLR 29/02 A3015 RMK AO1 T02860015
KU42 081635Z AUTO 16013G19KT 10SM CLR 28/02 A3015 RMK AO1 T02820016
KU42 081615Z AUTO 16012KT 10SM CLR 28/01 A3015 RMK AO1 T02790014
KU42 081555Z AUTO 16012KT 10SM CLR 27/02 A3014 RMK AO1 T02720018
KU42 081535Z AUTO 17012KT 10SM CLR 27/02 A3014 RMK AO1 T02650016
KU42 081515Z AUTO 17015G18KT 10SM CLR 26/02 A3014 RMK AO1 T02580016
KU42 081455Z AUTO 17013KT 10SM CLR 25/02 A3014 RMK AO1 T02450015
KU42 081435Z AUTO 18015KT 10SM CLR 24/02 A3014 RMK AO1 T02390021
KU42 081415Z AUTO 19011G16KT 10SM CLR 23/02 A3013 RMK AO1 T02310020
KU42 081355Z AUTO 18011KT 10SM CLR 23/01 A3012 RMK AO1 T02270014
KU42 081335Z AUTO 18009KT 10SM CLR 22/03 A3012 RMK AO1 T02160026
KU42 081315Z AUTO 20006KT 10SM CLR 20/03 A3011 RMK AO1 T01950028
KU42 081255Z AUTO 20009KT 10SM CLR 20/04 A3011 RMK AO1 T01990040
KU42 081235Z AUTO 19009KT 10SM CLR 20/03 A3010 RMK AO1 T02020033
KU42 081215Z AUTO 19009KT 10SM CLR 20/00 A3010 RMK AO1 T02030003
KU42 081155Z AUTO 21007KT 10SM CLR 20/02 A3010 RMK AO1 T01980016 10226 20169
KU42 081135Z AUTO 20007KT 10SM CLR 19/03 A3009 RMK AO1 T01860030
KU42 081115Z AUTO 14003KT 10SM CLR 19/03 A3009 RMK AO1 T01930029
KU42 081055Z AUTO 21005KT 10SM CLR 19/05 A3009 RMK AO1 T01940047
KU42 081035Z AUTO 18007KT 10SM CLR 20/06 A3009 RMK AO1 T01970058
KU42 081015Z AUTO 17008KT 10SM CLR 19/05 A3009 RMK AO1 T01930048
KU42 080955Z AUTO 20005KT 10SM CLR 18/03 A3009 RMK AO1 T01790034
KU42 080935Z AUTO 20003KT 10SM CLR 19/04 A3009 RMK AO1 T01940035
KU42 080915Z AUTO 00000KT 10SM CLR 19/04 A3008 RMK AO1 T01900036
KU42 080855Z AUTO 00000KT 10SM CLR 19/04 A3008 RMK AO1 T01880039
KU42 080835Z AUTO 00000KT 10SM CLR 20/04 A3008 RMK AO1 T01980040
KU42 080815Z AUTO 00000KT 10SM CLR 19/04 A3008 RMK AO1 T01900041
KU42 080755Z AUTO 00000KT 10SM CLR 20/05 A3008 RMK AO1 T01990049
KU42 080735Z AUTO 00000KT 10SM CLR 21/05 A3007 RMK AO1 T02110054
KU42 080715Z AUTO 00000KT 10SM CLR 22/04 A3007 RMK AO1 T02240040
KU42 080655Z AUTO 34005KT 10SM CLR 18/04 A3007 RMK AO1 T01760043
KU42 080635Z AUTO 00000KT 10SM CLR 21/05 A3006 RMK AO1 T02100053
KU42 080615Z AUTO 31003KT 10SM CLR 22/05 A3006 RMK AO1 T02190052
KU42 080555Z AUTO 28003KT 10SM CLR 22/05 A3006 RMK AO1 T02190052 10323 20209 403320209
KU42 080535Z AUTO 25004KT 10SM CLR 22/05 A3006 RMK AO1 T02150048
KU42 080515Z AUTO 00000KT 10SM CLR 23/04 A3006 RMK AO1 T02310039
KU42 080455Z AUTO 00000KT 10SM CLR 23/04 A3006 RMK AO1 T02260038
KU42 080435Z AUTO 00000KT 10SM CLR 23/04 A3005 RMK AO1 T02300042
KU42 080415Z AUTO 23006KT 10SM CLR 24/04 A3005 RMK AO1 T02360043
KU42 080355Z AUTO 24006KT 10SM CLR 24/04 A3005 RMK AO1 T02380043
KU42 080335Z AUTO 00000KT 10SM CLR 25/05 A3005 RMK AO1 T02460045
KU42 080315Z AUTO 00000KT 10SM CLR 25/05 A3004 RMK AO1 T02520050
KU42 080255Z AUTO 28003KT 10SM CLR 27/06 A3003 RMK AO1 T02700055
KU42 080235Z AUTO 30004KT 10SM CLR 28/06 A3003 RMK AO1 T02780060
KU42 080215Z AUTO 30005KT 10SM CLR 29/06 A3002 RMK AO1 T02890055
KU42 080155Z AUTO 33007KT 10SM CLR 30/06 A3002 RMK AO1 T02980055
KU42 080135Z AUTO 32010KT 10SM CLR 31/06 A3002 RMK AO1 T03050055
KU42 080115Z AUTO 34010KT 10SM CLR 31/06 A3002 RMK AO1 T03100057
KU42 080055Z AUTO 30008KT 10SM CLR 32/05 A3001 RMK AO1 T03150053
KU42 080035Z AUTO 32011KT 10SM CLR 32/05 A3001 RMK AO1 T03180053
KU42 080015Z AUTO 32010G17KT 10SM CLR 32/05 A3001 RMK AO1 T03190051
KU42 072355Z AUTO 33012KT 10SM CLR 32/06 A3001 RMK AO1 T03220055 10332 20306
KU42 072335Z AUTO 32012G16KT 10SM CLR 32/05 A3001 RMK AO1 T03220053
KU42 072315Z AUTO 33013KT 10SM CLR 33/05 A3001 RMK AO1 T03250054
KU42 072255Z AUTO 32012KT 10SM CLR 33/05 A3002 RMK AO1 T03250052
KU42 072235Z AUTO 35010KT 10SM CLR 33/05 A3002 RMK AO1 T03280054
KU42 072215Z AUTO 34014G18KT 10SM CLR 33/05 A3002 RMK AO1 T03280050
KU42 072155Z AUTO 33011G15KT 10SM CLR 33/05 A3002 RMK AO1 T03280054
KU42 072135Z AUTO 36005KT 10SM CLR 32/05 A3003 RMK AO1 T03210054
KU42 072115Z AUTO 00000KT 10SM CLR 32/02 A3003 RMK AO1 T03220017
KU42 072055Z AUTO 16011G14KT 10SM CLR 33/02 A3003 RMK AO1 T03280023
KU42 072035Z AUTO 13011G18KT 10SM CLR 33/02 A3003 RMK AO1 T03270021
KU42 072015Z AUTO 13014G18KT 10SM CLR 33/02 A3003 RMK AO1 T03260023
KU42 071955Z AUTO 13014KT 10SM CLR 32/03 A3003 RMK AO1 T03220025
KU42 071935Z AUTO 13014G19KT 10SM CLR 32/03 A3003 RMK AO1 T03230028
KU42 071915Z AUTO 14014G19KT 10SM CLR 32/03 A3004 RMK AO1 T03190027
KU42 071855Z AUTO 14015G21KT 10SM CLR 31/02 A3004 RMK AO1 T03120022
KU42 071835Z AUTO 15014G22KT 10SM CLR 31/03 A3004 RMK AO1 T03140026
KU42 071815Z AUTO 14014KT 10SM CLR 31/03 A3005 RMK AO1 T03080026
KU42 071755Z AUTO 15013G19KT 10SM CLR 31/03 A3005 RMK AO1 T03060026 10306 20221
KU42 071735Z AUTO 14014G23KT 10SM CLR 30/03 A3005 RMK AO1 T03020026
KU42 071715Z AUTO 14016G19KT 10SM CLR 30/03 A3005 RMK AO1 T02960026
KU42 071655Z AUTO 16014KT 10SM CLR 29/03 A3005 RMK AO1 T02920027
KU42 071635Z AUTO 14015G21KT 10SM CLR 29/03 A3005 RMK AO1 T02890029
KU42 071615Z AUTO 15014G17KT 10SM CLR 28/03 A3004 RMK AO1 T02810034
KU42 071555Z AUTO 15017G21KT 10SM CLR 28/03 A3004 RMK AO1 T02760027
KU42 071535Z AUTO 16019G23KT 10SM CLR 27/03 A3003 RMK AO1 T02700032
KU42 071515Z AUTO 16016G22KT 10SM CLR 27/03 A3003 RMK AO1 T02700026
KU42 071455Z AUTO 16014KT 10SM CLR 27/02 A3003 RMK AO1 T02650023
KU42 071435Z AUTO 16014G20KT 10SM CLR 26/03 A3002 RMK AO1 T02550026
KU42 071415Z AUTO 16014KT 10SM CLR 24/05 A3002 RMK AO1 T02430051
KU42 071355Z AUTO 16011G16KT 10SM CLR 24/04 A3001 RMK AO1 T02370041
KU42 071335Z AUTO 15011G17KT 10SM CLR 23/03 A3000 RMK AO1 T02320028
KU42 071315Z AUTO 15013KT 10SM CLR 23/01 A3000 RMK AO1 T02300006
KU42 071255Z AUTO 15015KT 10SM CLR 23/00 A2998 RMK AO1 T02290000
KU42 071235Z AUTO 17010KT 10SM CLR 22/00 A2998 RMK AO1 T02220002
KU42 071215Z AUTO 17013KT 10SM CLR 23/01 A2998 RMK AO1 T02250014
KU42 071155Z AUTO 16015G20KT 10SM CLR 23/03 A2996 RMK AO1 T02320033 10270 20231
KU42 071135Z AUTO 15013G17KT 10SM CLR 23/01 A2996 RMK AO1 T02340005
KU42 071115Z AUTO 16011KT 10SM CLR 24/01 A2995 RMK AO1 T02380006
KU42 071055Z AUTO 17013KT 10SM CLR 23/01 A2995 RMK AO1 T02320005
KU42 071035Z AUTO 17013KT 10SM CLR 23/00 A2994 RMK AO1 T02330001
KU42 071015Z AUTO 17011KT 10SM CLR 24/00 A2993 RMK AO1 T02401002
KU42 070955Z AUTO 15010KT 10SM CLR 25/00 A2993 RMK AO1 T02461002